Time;durP1;ratioP1;P1;durP2;ratioP2;P2;SDS_P1;SDS_P2;PMS_P1;PMS_P2;Temp;Humidity;BMP_temperature;BMP_pressure;BME280_temperature;BME280_humidity;BME280_pressure;Samples;Min_cycle;Max_cycle;Signal;HPM_P1;HPM_P2
2021/03/28 00:02:31;;;;;;;5.47;3.13;;;;;;;2.07;81.92;101550.38;5055973;28;20187;-74
2021/03/28 00:05:11;;;;;;;6.83;3.87;;;;;;;2.06;81.66;101548.66;5054568;28;20205;-75
2021/03/28 00:07:40;;;;;;;7.20;3.90;;;;;;;2.11;81.93;101552.22;5062038;28;20280;-74
2021/03/28 00:10:10;;;;;;;6.73;3.97;;;;;;;2.07;82.00;101547.81;5044671;28;20703;-74
2021/03/28 00:12:39;;;;;;;8.60;4.30;;;;;;;2.04;80.87;101551.97;5062408;28;20257;-71
2021/03/28 00:17:37;;;;;;;11.30;4.23;;;;;;;1.96;81.93;101556.84;5014525;28;20235;-77
2021/03/28 00:20:42;;;;;;;5.03;3.60;;;;;;;2.01;81.74;101557.91;5014288;28;20200;-76
2021/03/28 00:23:21;;;;;;;5.13;3.87;;;;;;;1.91;81.73;101566.13;5012811;28;20206;-78
2021/03/28 00:25:54;;;;;;;5.43;3.60;;;;;;;1.82;82.06;101552.94;4996969;28;20713;-76
2021/03/28 00:28:39;;;;;;;5.13;3.73;;;;;;;1.80;83.00;101550.31;4996220;28;20230;-75
2021/03/28 00:31:22;;;;;;;8.13;3.70;;;;;;;1.82;82.22;101556.38;5001123;28;20190;-77
2021/03/28 00:34:04;;;;;;;9.73;4.00;;;;;;;1.81;82.31;101549.50;4988315;28;20331;-76
2021/03/28 00:36:36;;;;;;;5.97;3.80;;;;;;;1.83;82.71;101554.69;5001091;28;20248;-76
2021/03/28 00:39:07;;;;;;;7.83;4.07;;;;;;;1.86;82.39;101555.66;4986096;28;20211;-75
2021/03/28 00:41:46;;;;;;;4.93;3.83;;;;;;;1.82;82.62;101553.81;5005042;28;20254;-78
2021/03/28 00:44:16;;;;;;;8.27;3.97;;;;;;;1.81;82.31;101557.22;4986241;28;20229;-78
2021/03/28 00:46:45;;;;;;;4.57;3.33;;;;;;;1.84;82.51;101556.44;5007087;28;20210;-76
2021/03/28 00:49:24;;;;;;;5.07;3.70;;;;;;;1.83;82.94;101553.00;4991824;28;20232;-77
2021/03/28 00:51:53;;;;;;;7.50;4.03;;;;;;;1.86;82.21;101555.66;4996379;28;20685;-77
2021/03/28 00:54:25;;;;;;;6.40;4.07;;;;;;;1.87;82.74;101566.84;4992184;28;20247;-76
2021/03/28 00:56:55;;;;;;;12.03;4.37;;;;;;;1.93;81.96;101555.06;5013385;28;20200;-76
2021/03/28 00:59:24;;;;;;;8.60;3.70;;;;;;;2.04;80.61;101559.69;5002179;28;20207;-77
2021/03/28 01:02:04;;;;;;;10.50;3.67;;;;;;;2.11;81.22;101564.25;4996472;28;20232;-76
2021/03/28 01:04:46;;;;;;;5.73;3.90;;;;;;;2.10;81.15;101553.06;4992966;28;20759;-76
2021/03/28 01:07:29;;;;;;;8.27;4.13;;;;;;;2.08;80.14;101547.00;5007458;28;20203;-77
2021/03/28 01:10:43;;;;;;;5.43;3.63;;;;;;;2.10;82.14;101549.59;4987827;28;20203;-76
2021/03/28 01:14:03;;;;;;;7.93;3.83;;;;;;;2.05;81.90;101546.00;4991202;28;20573;-77
2021/03/28 01:17:01;;;;;;;6.77;2.97;;;;;;;1.93;82.30;101538.75;5001512;28;20221;-77
2021/03/28 01:19:50;;;;;;;5.77;3.57;;;;;;;1.94;82.40;101538.81;4989635;28;20747;-76
2021/03/28 01:22:21;;;;;;;11.87;3.57;;;;;;;2.02;82.70;101541.59;5009839;28;20227;-77
2021/03/28 01:24:58;;;;;;;6.47;3.57;;;;;;;1.99;82.77;101539.81;4990544;28;20219;-76
2021/03/28 01:27:28;;;;;;;5.87;3.77;;;;;;;2.02;82.46;101538.16;5009335;28;20237;-76
2021/03/28 01:29:55;;;;;;;6.27;3.83;;;;;;;2.08;82.81;101539.28;4985353;28;20223;-76
2021/03/28 01:32:30;;;;;;;8.27;3.30;;;;;;;2.03;82.17;101542.50;5002411;28;20207;-75
2021/03/28 01:35:02;;;;;;;7.30;3.10;;;;;;;2.10;82.33;101542.78;4981547;28;20302;-78
2021/03/28 01:37:33;;;;;;;6.83;3.47;;;;;;;2.14;82.90;101533.41;4981322;28;20202;-76
2021/03/28 01:40:06;;;;;;;9.43;4.17;;;;;;;2.21;82.98;101537.97;4992052;28;20255;-76
2021/03/28 01:42:58;;;;;;;7.93;3.70;;;;;;;2.24;81.68;101534.59;4984143;28;20590;-76
2021/03/28 01:45:33;;;;;;;8.43;3.67;;;;;;;2.31;81.71;101532.28;4983911;28;20237;-77
2021/03/28 01:48:17;;;;;;;6.70;3.67;;;;;;;2.31;81.25;101528.84;4982198;28;20227;-77
2021/03/28 01:50:52;;;;;;;5.63;3.50;;;;;;;2.35;81.55;101533.25;4976473;28;20381;-77
2021/03/28 01:53:28;;;;;;;5.20;3.70;;;;;;;2.37;82.28;101523.88;4980248;28;20207;-76
2021/03/28 01:55:59;;;;;;;6.20;3.67;;;;;;;2.38;82.75;101533.38;4991961;28;20209;-76
2021/03/28 01:58:35;;;;;;;9.07;3.80;;;;;;;2.41;81.40;101535.16;4981611;28;20663;-76
2021/03/28 02:01:15;;;;;;;4.27;3.30;;;;;;;2.34;81.59;101534.97;4986118;28;20267;-76
2021/03/28 02:03:52;;;;;;;9.00;3.83;;;;;;;2.30;81.58;101530.53;4985157;28;20838;-75
2021/03/28 02:06:37;;;;;;;8.13;3.57;;;;;;;2.31;82.00;101526.25;4977080;28;20214;-77
2021/03/28 02:09:09;;;;;;;7.07;3.80;;;;;;;2.30;81.90;101524.50;4981723;28;20225;-76
2021/03/28 02:11:47;;;;;;;4.77;3.30;;;;;;;2.28;82.38;101524.47;4980911;28;20210;-75
2021/03/28 02:14:39;;;;;;;7.10;3.57;;;;;;;2.22;81.85;101519.13;4980607;28;20793;-76
2021/03/28 02:17:15;;;;;;;10.33;3.70;;;;;;;2.24;81.20;101530.34;4994442;28;20217;-76
2021/03/28 02:19:56;;;;;;;8.27;3.20;;;;;;;2.26;81.04;101538.09;4986697;28;20205;-76
2021/03/28 02:22:28;;;;;;;5.40;3.07;;;;;;;2.29;80.98;101523.63;4989522;28;20200;-76
2021/03/28 02:25:05;;;;;;;8.57;3.40;;;;;;;2.24;81.81;101514.88;4997924;28;20284;-76
2021/03/28 02:27:41;;;;;;;7.93;2.93;;;;;;;2.20;80.03;101523.34;4996259;28;20222;-75
2021/03/28 02:30:17;;;;;;;7.87;3.30;;;;;;;2.28;80.90;101515.84;4990010;28;20234;-76
2021/03/28 02:32:51;;;;;;;6.77;3.40;;;;;;;2.28;81.23;101511.59;5001526;28;20199;-76
2021/03/28 02:35:39;;;;;;;6.13;3.70;;;;;;;2.27;81.09;101512.41;4992122;28;20232;-76
2021/03/28 02:38:13;;;;;;;4.90;3.07;;;;;;;2.30;80.49;101511.59;4989727;28;20195;-76
2021/03/28 02:40:44;;;;;;;8.70;2.93;;;;;;;2.29;80.57;101515.91;5000210;28;20216;-76
2021/03/28 02:43:24;;;;;;;6.67;3.30;;;;;;;2.27;80.42;101514.09;4987522;28;20203;-76
2021/03/28 02:46:09;;;;;;;8.13;3.53;;;;;;;2.28;80.89;101513.25;4997829;28;20213;-76
2021/03/28 02:48:46;;;;;;;4.43;2.40;;;;;;;2.28;81.45;101519.31;4994291;28;20224;-77
2021/03/28 02:51:37;;;;;;;6.40;3.57;;;;;;;2.34;80.68;101519.50;4998792;28;20203;-76
2021/03/28 02:54:27;;;;;;;7.53;3.10;;;;;;;2.31;81.06;101523.69;4996772;28;20644;-76
2021/03/28 02:57:04;;;;;;;9.37;2.90;;;;;;;2.28;80.61;101516.75;4998942;28;20207;-77
2021/03/28 02:59:48;;;;;;;5.00;2.37;;;;;;;2.16;80.40;101524.03;4992377;28;20259;-76
2021/03/28 03:02:42;;;;;;;5.40;2.97;;;;;;;2.25;80.67;101528.63;4993857;28;20203;-76
2021/03/28 03:05:45;;;;;;;5.20;2.93;;;;;;;2.28;79.93;101527.03;4998088;28;20243;-76
2021/03/28 03:08:16;;;;;;;7.03;3.10;;;;;;;2.30;80.49;101519.34;4991529;28;20228;-76
2021/03/28 03:10:54;;;;;;;6.17;3.20;;;;;;;2.27;81.39;101514.09;5002943;28;20239;-77
2021/03/28 03:13:44;;;;;;;8.67;3.30;;;;;;;2.31;80.47;101508.22;5002969;28;20219;-76
2021/03/28 03:16:19;;;;;;;16.70;2.60;;;;;;;2.35;80.63;101504.91;5005380;28;20217;-76
2021/03/28 03:19:06;;;;;;;7.03;2.40;;;;;;;2.31;80.46;101503.94;5002533;28;20231;-77
2021/03/28 03:22:11;;;;;;;9.30;2.63;;;;;;;2.46;78.34;101507.81;5009201;28;20206;-77
2021/03/28 03:24:57;;;;;;;3.97;2.80;;;;;;;2.51;77.88;101490.81;4988570;28;20262;-77
2021/03/28 03:27:45;;;;;;;6.83;2.50;;;;;;;2.57;77.23;101498.72;5013857;28;20212;-77
2021/03/28 03:30:35;;;;;;;6.00;2.83;;;;;;;2.63;77.77;101501.50;5001846;28;20205;-76
2021/03/28 03:33:39;;;;;;;7.90;2.73;;;;;;;2.63;78.00;101490.31;4990854;28;20202;-76
2021/03/28 03:36:26;;;;;;;5.30;2.97;;;;;;;2.63;79.36;101495.47;4989063;28;20201;-77
2021/03/28 03:39:36;;;;;;;5.50;2.60;;;;;;;2.68;76.70;101502.53;4985252;28;20891;-77
2021/03/28 03:42:14;;;;;;;6.50;2.60;;;;;;;2.72;77.69;101501.78;4944831;28;20198;-76
2021/03/28 03:45:20;;;;;;;8.23;2.47;;;;;;;2.79;76.42;101513.13;4951100;28;20671;-77
2021/03/28 03:47:57;;;;;;;7.73;2.40;;;;;;;2.80;77.67;101520.06;4985622;28;20711;-76
2021/03/28 03:50:47;;;;;;;6.70;2.53;;;;;;;2.72;79.03;101517.25;4985804;28;20259;-76
2021/03/28 03:53:23;;;;;;;3.13;2.40;;;;;;;2.76;78.71;101519.09;4983658;28;20209;-76
2021/03/28 03:55:59;;;;;;;6.60;2.43;;;;;;;2.82;77.37;101512.38;4993268;28;20199;-76
2021/03/28 03:58:30;;;;;;;5.03;2.33;;;;;;;2.89;77.23;101507.44;4993280;28;20204;-76
2021/03/28 04:01:09;;;;;;;9.60;2.43;;;;;;;2.88;79.21;101507.41;5000404;28;20211;-77
2021/03/28 04:03:45;;;;;;;4.97;2.23;;;;;;;2.82;78.14;101517.53;4994520;28;20205;-77
2021/03/28 04:06:40;;;;;;;2.80;2.27;;;;;;;2.83;78.05;101517.56;4998223;28;20199;-75
2021/03/28 04:09:19;;;;;;;4.57;2.30;;;;;;;2.81;78.51;101515.78;4982989;28;20223;-75
2021/03/28 04:12:14;;;;;;;6.23;2.07;;;;;;;2.80;79.98;101514.91;5006629;28;20204;-76
2021/03/28 04:15:05;;;;;;;7.47;3.00;;;;;;;2.81;79.88;101508.03;4980498;28;20225;-77
2021/03/28 04:17:42;;;;;;;4.10;2.00;;;;;;;2.85;78.49;101507.31;4999195;28;20582;-77
2021/03/28 04:20:17;;;;;;;4.47;1.93;;;;;;;2.85;78.82;101515.03;4996303;28;20212;-77
2021/03/28 04:23:19;;;;;;;6.80;2.50;;;;;;;2.82;78.59;101510.66;4999888;28;20201;-76
2021/03/28 04:25:58;;;;;;;6.17;2.40;;;;;;;2.77;78.20;101518.28;5000868;28;20224;-76
2021/03/28 04:28:51;;;;;;;5.00;2.27;;;;;;;2.81;78.21;101514.06;4986509;28;20235;-76
2021/03/28 04:31:42;;;;;;;6.53;2.27;;;;;;;2.84;78.58;101510.72;5005207;28;20203;-77
2021/03/28 04:34:15;;;;;;;4.33;2.10;;;;;;;2.88;78.45;101512.56;4988940;28;20591;-77
2021/03/28 04:36:49;;;;;;;3.70;1.97;;;;;;;2.84;78.01;101505.56;4993435;28;20573;-76
2021/03/28 04:39:28;;;;;;;5.90;2.03;;;;;;;2.85;78.34;101505.59;4987126;28;20213;-77
2021/03/28 04:42:37;;;;;;;4.50;2.57;;;;;;;2.87;78.50;101513.38;4988170;28;20197;-75
2021/03/28 04:45:37;;;;;;;5.50;2.67;;;;;;;2.84;79.14;101514.16;4989069;28;20237;-77
2021/03/28 04:48:31;;;;;;;4.27;2.03;;;;;;;2.80;79.55;101514.91;4985108;28;20222;-76
2021/03/28 04:51:18;;;;;;;5.77;2.70;;;;;;;2.76;79.54;101505.34;4987838;28;21796;-77
2021/03/28 04:54:25;;;;;;;3.70;2.00;;;;;;;2.79;79.48;101502.81;4979978;28;20225;-76
2021/03/28 04:57:06;;;;;;;5.23;2.50;;;;;;;2.75;78.89;101504.44;4993219;28;20205;-76
2021/03/28 04:59:59;;;;;;;7.30;2.33;;;;;;;2.82;79.51;101509.81;4997626;28;20204;-76
2021/03/28 05:02:43;;;;;;;4.00;2.23;;;;;;;2.81;78.92;101510.63;4999768;28;20193;-75
2021/03/28 05:05:48;;;;;;;5.27;2.23;;;;;;;2.80;77.23;101514.03;4996134;28;20236;-76
2021/03/28 05:08:43;;;;;;;4.53;2.63;;;;;;;2.88;77.90;101509.97;4990521;28;20370;-76
2021/03/28 05:11:37;;;;;;;4.97;2.57;;;;;;;2.91;78.36;101513.50;4995197;28;20339;-76
2021/03/28 05:14:48;;;;;;;2.87;2.57;;;;;;;3.01;77.58;101508.63;4980938;28;20224;-76
2021/03/28 05:17:54;;;;;;;8.40;2.43;;;;;;;3.00;77.61;101512.91;5000481;28;20215;-76
2021/03/28 05:20:53;;;;;;;4.43;2.40;;;;;;;3.05;76.65;101503.59;4995171;28;20228;-76
2021/03/28 05:24:10;;;;;;;5.40;2.40;;;;;;;3.14;77.41;101503.00;4994751;28;20201;-76
2021/03/28 05:26:53;;;;;;;7.37;2.73;;;;;;;3.23;76.36;101502.38;5005152;28;20198;-76
2021/03/28 05:29:53;;;;;;;6.43;2.60;;;;;;;3.23;77.10;101489.47;4988687;28;20238;-76
2021/03/28 05:32:39;;;;;;;7.23;2.83;;;;;;;3.25;76.94;101496.44;5003448;28;20213;-77
2021/03/28 05:35:47;;;;;;;4.07;2.13;;;;;;;3.29;75.78;101500.84;4984959;28;20221;-77
2021/03/28 05:38:39;;;;;;;4.10;2.30;;;;;;;3.36;77.31;101497.59;4985607;28;20693;-76
2021/03/28 05:41:25;;;;;;;10.97;2.53;;;;;;;3.43;75.45;101479.69;4979986;28;20643;-76
2021/03/28 05:44:22;;;;;;;4.70;2.50;;;;;;;3.52;74.68;101488.56;4990115;28;20219;-76
2021/03/28 05:47:06;;;;;;;5.67;2.93;;;;;;;3.60;75.20;101483.59;4993820;28;20591;-76
2021/03/28 05:49:55;;;;;;;5.17;2.67;;;;;;;3.57;75.93;101492.16;4987558;28;20234;-76
2021/03/28 05:52:59;;;;;;;4.93;3.00;;;;;;;3.62;75.07;101489.69;4992586;28;20582;-77
2021/03/28 05:55:46;;;;;;;11.20;3.40;;;;;;;3.67;74.64;101482.94;4989279;28;20266;-77
2021/03/28 05:58:37;;;;;;;6.53;3.30;;;;;;;3.74;74.39;101486.56;4981504;28;20206;-75
2021/03/28 06:01:20;;;;;;;6.50;3.37;;;;;;;3.84;74.66;101498.00;4991215;28;20205;-76
2021/03/28 06:04:23;;;;;;;4.77;3.07;;;;;;;3.88;72.87;101495.53;4992707;28;20230;-76
2021/03/28 06:07:41;;;;;;;5.43;2.57;;;;;;;3.93;74.74;101491.34;4995443;28;20198;-77
2021/03/28 06:10:35;;;;;;;5.77;3.60;;;;;;;3.97;74.88;101500.06;4993854;28;20212;-76
2021/03/28 06:13:18;;;;;;;6.40;3.00;;;;;;;3.99;74.30;101500.97;4989805;28;20207;-76
2021/03/28 06:16:16;;;;;;;3.73;2.67;;;;;;;4.06;74.10;101496.81;5019620;22;20238;-75
2021/03/28 06:19:27;;;;;;;6.27;2.83;;;;;;;4.10;73.34;101508.97;5036926;28;20220;-74
2021/03/28 06:22:28;;;;;;;7.63;2.87;;;;;;;4.14;72.72;101497.88;5032794;28;20198;-75
2021/03/28 06:25:28;;;;;;;5.90;2.90;;;;;;;4.21;73.22;101507.53;5030174;28;20224;-74
2021/03/28 06:28:32;;;;;;;10.43;2.93;;;;;;;4.22;72.89;101513.56;5026240;28;20629;-75
2021/03/28 06:31:41;;;;;;;5.30;2.80;;;;;;;4.33;73.34;101514.72;5023113;28;20224;-75
2021/03/28 06:34:36;;;;;;;5.10;3.43;;;;;;;4.38;71.58;101521.75;4944552;28;20719;-74
2021/03/28 06:37:37;;;;;;;8.97;3.50;;;;;;;4.44;72.14;101522.72;5020748;28;20664;-74
2021/03/28 06:40:26;;;;;;;5.73;2.50;;;;;;;4.44;72.40;101518.44;5024442;28;20200;-74
2021/03/28 06:43:26;;;;;;;3.97;3.03;;;;;;;4.44;72.20;101507.22;5023562;28;20292;-74
2021/03/28 06:46:13;;;;;;;6.67;3.03;;;;;;;4.47;72.19;101512.47;5020688;28;20232;-74
2021/03/28 06:49:12;;;;;;;5.60;3.03;;;;;;;4.46;73.05;101511.59;5029590;28;20218;-75
2021/03/28 06:51:58;;;;;;;9.03;3.63;;;;;;;4.46;72.06;101511.59;5027138;28;20206;-74
2021/03/28 06:54:58;;;;;;;5.37;3.07;;;;;;;4.48;73.43;101516.78;5025642;28;20202;-74
2021/03/28 06:58:17;;;;;;;4.67;2.83;;;;;;;4.55;71.68;101509.19;5026786;28;20199;-74
2021/03/28 07:01:12;;;;;;;6.63;3.30;;;;;;;4.65;71.96;101512.88;5024929;28;20206;-75
2021/03/28 07:04:19;;;;;;;9.40;3.37;;;;;;;4.78;71.22;101514.03;5025452;28;20201;-75
2021/03/28 07:06:53;;;;;;;5.90;3.17;;;;;;;4.87;71.40;101529.75;4988551;28;20252;-74
2021/03/28 07:09:42;;;;;;;4.37;2.80;;;;;;;5.01;70.76;101524.88;5027996;28;20255;-73
2021/03/28 07:12:23;;;;;;;6.90;3.70;;;;;;;5.12;70.82;101520.81;5027287;28;20674;-74
2021/03/28 07:15:26;;;;;;;5.53;2.97;;;;;;;5.23;69.96;101520.16;5023560;28;20628;-76
2021/03/28 07:18:28;;;;;;;4.00;2.80;;;;;;;5.29;71.62;101515.09;5026999;28;20200;-75
2021/03/28 07:21:14;;;;;;;5.90;3.23;;;;;;;5.37;70.09;101508.34;5025872;28;20211;-75
2021/03/28 07:24:11;;;;;;;3.60;2.67;;;;;;;5.47;69.72;101509.41;5027202;28;20197;-74
2021/03/28 07:26:50;;;;;;;4.97;2.70;;;;;;;5.50;70.41;101499.97;5021287;28;20643;-74
2021/03/28 07:29:52;;;;;;;5.23;2.50;;;;;;;5.61;69.81;101502.78;5024827;28;20222;-74
2021/03/28 07:32:53;;;;;;;7.83;3.27;;;;;;;5.61;68.63;101495.00;5028568;28;20238;-74
2021/03/28 07:35:45;;;;;;;6.57;3.53;;;;;;;5.70;69.73;101502.06;5014053;28;20710;-74
2021/03/28 07:38:50;;;;;;;6.30;2.20;;;;;;;5.81;69.54;101497.06;5027475;28;20201;-73
2021/03/28 07:41:42;;;;;;;5.20;2.97;;;;;;;5.81;69.47;101491.88;5038153;28;20209;-73
2021/03/28 07:44:46;;;;;;;5.60;2.40;;;;;;;5.94;69.79;101496.44;5029609;28;20205;-73
2021/03/28 07:47:38;;;;;;;5.17;2.53;;;;;;;6.09;68.87;101504.50;5019796;28;20209;-74
2021/03/28 07:50:39;;;;;;;4.87;2.30;;;;;;;6.17;68.17;101502.06;5018526;28;20226;-75
2021/03/28 07:53:23;;;;;;;8.03;3.20;;;;;;;6.38;70.23;101505.81;5025190;28;20197;-74
2021/03/28 07:56:01;;;;;;;7.40;3.23;;;;;;;6.46;68.87;101504.22;5032759;28;20322;-74
2021/03/28 07:58:56;;;;;;;6.30;2.50;;;;;;;6.61;69.45;101493.22;5035360;28;20190;-74
2021/03/28 08:01:49;;;;;;;7.20;2.87;;;;;;;6.49;67.52;101497.34;5022982;28;20594;-73
2021/03/28 08:04:49;;;;;;;7.93;3.00;;;;;;;6.46;69.20;101496.44;5025364;28;20217;-74
2021/03/28 08:07:39;;;;;;;4.83;2.70;;;;;;;6.65;68.93;101497.59;5034181;28;20202;-73
2021/03/28 08:10:47;;;;;;;7.00;2.90;;;;;;;6.69;67.73;101508.03;5032332;28;20779;-73
2021/03/28 08:13:40;;;;;;;10.90;2.77;;;;;;;6.72;67.41;101509.81;5034163;28;20258;-73
2021/03/28 08:16:17;;;;;;;5.97;2.60;;;;;;;6.67;66.24;101520.09;5031701;28;20246;-74
2021/03/28 08:19:01;;;;;;;6.67;2.83;;;;;;;6.67;69.06;101508.84;5031330;28;20191;-75
2021/03/28 08:21:37;;;;;;;4.53;2.10;;;;;;;6.77;67.94;101523.69;5031357;28;20209;-74
2021/03/28 08:24:23;;;;;;;6.07;2.73;;;;;;;6.81;68.16;101511.66;5028344;28;20212;-75
2021/03/28 08:27:09;;;;;;;3.33;2.70;;;;;;;6.90;67.74;101528.22;5034987;28;20205;-75
2021/03/28 08:29:50;;;;;;;6.27;3.30;;;;;;;6.87;68.24;101522.09;5029877;28;20207;-75
2021/03/28 08:32:46;;;;;;;4.93;2.57;;;;;;;6.90;68.18;101525.63;5029646;28;20673;-75
2021/03/28 08:35:28;;;;;;;7.10;2.50;;;;;;;7.02;69.04;101518.88;5013651;28;20263;-75
2021/03/28 08:38:24;;;;;;;7.93;3.40;;;;;;;7.00;68.16;101518.84;5024797;28;20283;-75
2021/03/28 08:41:15;;;;;;;7.60;2.97;;;;;;;6.98;68.69;101533.53;5027083;28;20198;-75
2021/03/28 08:44:04;;;;;;;6.72;3.40;;;;;;;6.99;67.31;101526.59;5035624;28;20450;-75
2021/03/28 08:47:02;;;;;;;6.37;2.77;;;;;;;7.14;68.23;101519.88;5027740;28;20225;-75
2021/03/28 08:49:34;;;;;;;5.50;2.27;;;;;;;7.17;67.59;101508.66;5036379;28;20712;-74
2021/03/28 08:52:21;;;;;;;6.13;2.60;;;;;;;7.35;67.61;101511.50;5040006;28;20200;-75
2021/03/28 08:54:58;;;;;;;4.33;2.43;;;;;;;7.51;67.41;101511.63;5023037;28;20229;-75
2021/03/28 08:57:43;;;;;;;4.60;2.30;;;;;;;7.70;67.19;101499.72;5030426;28;20216;-75
2021/03/28 09:00:38;;;;;;;5.30;2.47;;;;;;;7.91;66.88;101514.66;5024314;28;20671;-75
2021/03/28 09:03:24;;;;;;;4.33;2.30;;;;;;;8.09;68.07;101516.56;5038937;28;20202;-78
2021/03/28 09:05:51;;;;;;;5.67;2.73;;;;;;;8.04;65.67;101518.22;5029981;28;20225;-74
2021/03/28 09:08:26;;;;;;;4.20;2.13;;;;;;;8.17;66.09;101512.28;5044547;28;20232;-73
2021/03/28 09:11:24;;;;;;;3.60;2.40;;;;;;;8.26;64.75;101516.69;5034681;28;20204;-73
2021/03/28 09:14:01;;;;;;;3.90;2.00;;;;;;;8.27;65.68;101514.09;5035039;28;20202;-74
2021/03/28 09:16:39;;;;;;;5.97;2.40;;;;;;;8.35;66.44;101512.41;5037785;28;20233;-73
2021/03/28 09:19:15;;;;;;;6.17;2.30;;;;;;;8.54;65.34;101505.66;5028514;28;20204;-74
2021/03/28 09:21:52;;;;;;;5.70;2.60;;;;;;;8.68;66.96;101508.34;5035754;28;20210;-73
2021/03/28 09:24:31;;;;;;;4.57;2.03;;;;;;;8.51;64.74;101510.84;5038223;28;20223;-73
2021/03/28 09:27:16;;;;;;;8.00;3.07;;;;;;;8.70;67.07;101514.44;5043940;28;20200;-73
2021/03/28 09:29:57;;;;;;;5.57;2.63;;;;;;;8.87;65.26;101511.06;5028122;28;20230;-73
2021/03/28 09:32:47;;;;;;;5.13;2.03;;;;;;;8.81;63.44;101514.50;5034838;28;20213;-73
2021/03/28 09:35:42;;;;;;;3.53;2.20;;;;;;;8.84;64.74;101511.03;5031136;28;20573;-73
2021/03/28 09:38:14;;;;;;;4.33;2.60;;;;;;;8.82;63.26;101510.16;5025090;28;20213;-73
2021/03/28 09:40:48;;;;;;;6.00;2.40;;;;;;;8.51;64.32;101505.63;5027818;28;20210;-73
2021/03/28 09:43:30;;;;;;;6.50;2.17;;;;;;;8.42;65.14;101504.69;5019009;28;20259;-73
2021/03/28 09:46:26;;;;;;;6.17;2.00;;;;;;;8.39;65.38;101505.53;5022650;28;20244;-73
2021/03/28 09:49:24;;;;;;;6.37;2.40;;;;;;;8.42;66.50;101502.94;5027961;28;20703;-74
2021/03/28 09:52:22;;;;;;;7.10;2.53;;;;;;;8.40;64.86;101504.66;5023055;28;20203;-73
2021/03/28 09:55:19;;;;;;;5.00;2.37;;;;;;;8.58;65.62;101496.13;5009775;28;20234;-74
2021/03/28 09:58:25;;;;;;;5.10;2.20;;;;;;;8.69;65.29;101491.84;5025858;28;20209;-74
2021/03/28 10:01:06;;;;;;;7.13;2.37;;;;;;;8.83;65.23;101493.69;4997304;28;20290;-75
2021/03/28 10:03:44;;;;;;;4.00;2.10;;;;;;;8.97;64.59;101492.00;5022621;28;20225;-75
2021/03/28 10:06:17;;;;;;;3.97;2.20;;;;;;;8.79;63.62;101492.78;5025613;28;20222;-75
2021/03/28 10:08:45;;;;;;;6.70;2.33;;;;;;;8.92;64.01;101497.19;5028325;28;20214;-75
2021/03/28 10:11:32;;;;;;;5.93;2.47;;;;;;;8.92;63.74;101498.94;4333840;28;10000735;-75
2021/03/28 10:14:16;;;;;;;4.23;2.17;;;;;;;8.87;64.19;101490.22;5022096;28;20292;-75
2021/03/28 10:16:50;;;;;;;4.13;2.30;;;;;;;9.01;64.45;101482.47;5028044;28;20374;-75
2021/03/28 10:19:22;;;;;;;4.17;2.40;;;;;;;9.21;63.14;101480.81;5019972;28;20236;-75
2021/03/28 10:21:57;;;;;;;4.80;2.00;;;;;;;9.44;64.16;101480.88;5022321;28;20197;-75
2021/03/28 10:24:42;;;;;;;3.90;1.93;;;;;;;9.76;63.22;101474.00;5027111;28;20209;-79
2021/03/28 10:27:36;;;;;;;9.33;2.40;;;;;;;9.83;61.99;101475.72;5021305;28;20222;-79
2021/03/28 10:30:12;;;;;;;5.83;2.00;;;;;;;9.87;60.77;101480.06;5031876;28;20226;-82
2021/03/28 10:32:53;;;;;;;5.57;2.43;;;;;;;9.85;61.60;101472.28;5036549;28;20206;-81
2021/03/28 10:35:53;;;;;;;5.03;2.43;;;;;;;9.89;60.44;101468.78;5029769;28;20234;-81
2021/03/28 10:38:40;;;;;;;4.57;2.20;;;;;;;9.94;61.25;101467.03;4966290;28;20225;-81
2021/03/28 10:41:23;;;;;;;3.27;1.50;;;;;;;9.86;59.85;101466.19;5034708;28;20209;-82
2021/03/28 10:44:18;;;;;;;8.00;2.37;;;;;;;9.80;60.85;101465.31;5039391;28;20214;-82
2021/03/28 10:47:18;;;;;;;3.67;2.10;;;;;;;9.84;61.58;101443.59;5046201;28;20236;-82
2021/03/28 10:50:15;;;;;;;4.83;2.07;;;;;;;9.92;61.19;101455.75;5044107;28;20280;-82
2021/03/28 10:53:13;;;;;;;4.90;2.10;;;;;;;10.09;61.88;101444.47;5047681;28;20198;-81
2021/03/28 10:56:01;;;;;;;5.03;2.43;;;;;;;9.87;59.59;101436.63;5034343;28;20229;-82
2021/03/28 10:59:13;;;;;;;3.60;1.73;;;;;;;9.97;60.72;101434.91;5047126;28;20187;-81
2021/03/28 11:02:19;;;;;;;5.90;2.30;;;;;;;10.24;60.88;101430.50;5040815;28;20215;-81
2021/03/28 11:05:10;;;;;;;5.60;2.00;;;;;;;10.52;61.99;101427.00;5019069;28;20257;-81
2021/03/28 11:07:53;;;;;;;4.67;1.80;;;;;;;10.65;59.19;101422.59;5038436;28;20202;-81
2021/03/28 11:10:47;;;;;;;3.07;1.60;;;;;;;10.77;58.04;101416.47;5021776;28;20739;-81
2021/03/28 11:13:32;;;;;;;3.30;2.30;;;;;;;10.86;57.79;101412.94;5038710;28;20593;-81
2021/03/28 11:16:14;;;;;;;3.33;1.80;;;;;;;11.03;57.90;101416.34;5028579;28;20226;-81
2021/03/28 11:19:31;;;;;;;4.57;1.83;;;;;;;11.20;56.46;101399.69;5033580;28;20659;-81
2021/03/28 11:22:09;;;;;;;6.67;1.93;;;;;;;11.56;57.50;101403.84;4967913;28;20207;-81
2021/03/28 11:24:59;;;;;;;5.27;2.50;;;;;;;11.52;56.97;101402.97;5040275;28;20195;-80
2021/03/28 11:28:16;;;;;;;3.47;1.90;;;;;;;11.73;55.92;101395.84;5045147;28;20705;-80
2021/03/28 11:30:44;;;;;;;9.97;2.93;;;;;;;11.97;55.27;101396.53;5005141;28;20951;-81
2021/03/28 11:33:22;;;;;;;4.53;2.30;;;;;;;11.99;54.36;101400.00;5045043;28;20206;-81
2021/03/28 11:36:07;;;;;;;4.30;2.00;;;;;;;12.11;53.57;101378.97;5031410;28;20602;-81
2021/03/28 11:38:40;;;;;;;4.80;1.80;;;;;;;13.20;52.13;101381.97;5031869;28;20191;-81
2021/03/28 11:41:39;;;;;;;4.03;2.20;;;;;;;13.24;48.67;101392.41;5040618;28;20209;-82
2021/03/28 11:44:18;;;;;;;5.27;2.50;;;;;;;13.47;50.94;101383.34;5031757;28;20206;-81
2021/03/28 11:46:51;;;;;;;4.40;2.10;;;;;;;14.05;49.91;101376.25;5038668;28;20580;-81
2021/03/28 11:49:21;;;;;;;4.60;1.67;;;;;;;14.48;47.31;101380.69;5038067;28;20615;-82
2021/03/28 11:52:12;;;;;;;3.33;2.10;;;;;;;13.81;48.25;101377.56;5042514;28;20203;-81
2021/03/28 11:54:40;;;;;;;4.13;2.20;;;;;;;13.37;48.68;101384.41;5047996;28;20542;-81
2021/03/28 11:57:28;;;;;;;4.67;2.17;;;;;;;13.27;50.21;101383.63;5042941;28;20204;-81
2021/03/28 11:59:55;;;;;;;2.37;1.60;;;;;;;12.60;49.00;101369.69;5022465;28;20276;-81
2021/03/28 12:02:26;;;;;;;4.40;2.63;;;;;;;12.47;50.57;101380.31;5048807;28;20199;-81
2021/03/28 12:05:48;;;;;;;3.57;1.77;;;;;;;12.43;52.85;101372.53;5026408;28;20227;-81
2021/03/28 12:08:14;;;;;;;2.60;1.80;;;;;;;12.47;52.55;101366.38;5040311;28;20203;-81
2021/03/28 12:10:41;;;;;;;3.07;1.57;;;;;;;12.40;52.08;101370.78;5028873;28;20221;-81
2021/03/28 12:13:27;;;;;;;5.50;1.93;;;;;;;12.51;51.15;101371.53;5047336;28;20249;-81
2021/03/28 12:15:59;;;;;;;2.37;1.80;;;;;;;12.44;50.06;101362.00;5045284;22;20224;-75
2021/03/28 12:18:42;;;;;;;5.47;1.47;;;;;;;12.24;49.75;101362.25;5034378;28;20210;-75
2021/03/28 12:21:30;;;;;;;2.47;1.17;;;;;;;12.30;49.51;101366.53;5035133;28;20580;-75
2021/03/28 12:24:01;;;;;;;3.77;1.73;;;;;;;12.42;49.64;101357.69;5031383;28;20207;-75
2021/03/28 12:26:31;;;;;;;5.03;1.77;;;;;;;12.45;49.78;101352.44;5033650;28;20284;-75
2021/03/28 12:29:01;;;;;;;3.47;1.43;;;;;;;12.30;48.82;101356.94;5017736;28;20777;-74
2021/03/28 12:31:34;;;;;;;3.53;2.03;;;;;;;12.12;48.68;101354.53;5019805;28;20206;-75
2021/03/28 12:34:24;;;;;;;6.90;1.40;;;;;;;12.08;50.35;101350.22;5018306;28;20199;-75
2021/03/28 12:36:55;;;;;;;3.70;1.40;;;;;;;12.08;50.29;101350.22;5029667;28;20226;-75
2021/03/28 12:39:23;;;;;;;2.87;1.40;;;;;;;11.96;50.91;101371.28;5025073;28;20202;-76
2021/03/28 12:42:17;;;;;;;2.13;1.30;;;;;;;12.02;50.87;101364.22;5022193;28;20212;-75
2021/03/28 12:44:44;;;;;;;6.67;1.77;;;;;;;12.32;51.52;101356.91;5025102;28;20688;-75
2021/03/28 12:47:18;;;;;;;3.43;1.50;;;;;;;12.48;49.93;101355.00;5029966;28;20227;-74
2021/03/28 12:49:52;;;;;;;2.73;1.40;;;;;;;12.28;48.87;101355.22;5023011;28;20224;-75
2021/03/28 12:52:25;;;;;;;3.27;1.60;;;;;;;12.38;51.09;101363.84;5024639;28;20217;-76
2021/03/28 12:55:11;;;;;;;4.20;2.07;;;;;;;12.11;50.03;101360.66;5018292;28;20211;-76
2021/03/28 12:57:42;;;;;;;5.63;1.70;;;;;;;12.17;51.55;101357.97;5029204;28;20210;-75
2021/03/28 13:00:20;;;;;;;2.27;1.37;;;;;;;12.08;51.61;101361.53;5020286;28;20200;-76
2021/03/28 13:02:47;;;;;;;4.20;1.83;;;;;;;12.11;51.26;101361.50;5021901;28;20689;-75